Time;durP1;ratioP1;P1;durP2;ratioP2;P2;SDS_P1;SDS_P2;PMS_P1;PMS_P2;Temp;Humidity;BMP_temperature;BMP_pressure;BME280_temperature;BME280_humidity;BME280_pressure;Samples;Min_cycle;Max_cycle;Signal;HPM_P1;HPM_P2
2023/07/12 00:00:38;;;;;;;7.75;5.63;;;;;;;25.28;66.68;97820.63;4166717;28;20083;-75
2023/07/12 00:02:38;;;;;;;9.95;5.93;;;;;;;25.35;66.42;97820.19;4167077;28;20124;-74
2023/07/12 00:04:38;;;;;;;10.77;5.50;;;;;;;25.42;65.93;97824.66;4157359;28;20041;-75
2023/07/12 00:06:39;;;;;;;6.63;5.68;;;;;;;25.40;66.24;97821.53;4165580;28;20041;-74
2023/07/12 00:08:43;;;;;;;6.93;5.97;;;;;;;25.39;65.95;97811.47;4158067;28;20049;-74
2023/07/12 00:10:43;;;;;;;9.02;5.78;;;;;;;25.43;66.01;97829.84;4167295;28;20052;-74
2023/07/12 00:12:44;;;;;;;8.73;5.85;;;;;;;25.42;66.34;97813.34;4169196;28;20041;-75
2023/07/12 00:14:44;;;;;;;7.28;5.30;;;;;;;25.39;65.89;97805.81;4157745;28;20117;-74
2023/07/12 00:16:44;;;;;;;6.53;5.63;;;;;;;25.33;66.71;97802.94;4170172;28;20045;-75
2023/07/12 00:18:44;;;;;;;9.10;5.80;;;;;;;25.28;66.66;97794.34;4166012;28;20037;-75
2023/07/12 00:20:47;;;;;;;7.93;5.60;;;;;;;25.26;66.72;97796.91;4171392;28;20432;-73
2023/07/12 00:22:47;;;;;;;13.05;5.85;;;;;;;25.23;66.93;97792.22;4159884;28;20042;-75
2023/07/12 00:24:48;;;;;;;9.85;5.53;;;;;;;25.23;67.01;97784.50;4157657;28;20251;-74
2023/07/12 00:26:48;;;;;;;9.35;5.10;;;;;;;25.19;67.30;97798.09;4161682;28;20363;-74
2023/07/12 00:28:48;;;;;;;6.90;4.85;;;;;;;25.15;67.40;97781.31;4160548;28;20119;-74
2023/07/12 00:30:51;;;;;;;6.40;4.53;;;;;;;25.13;67.53;97785.91;4161874;28;20175;-74
2023/07/12 00:32:52;;;;;;;;;;;;;;;25.05;68.33;97787.59;4168478;28;20052;-75
2023/07/12 00:34:54;;;;;;;7.70;5.07;;;;;;;25.01;68.09;97782.13;4171530;28;19952;-74
2023/07/12 00:36:55;;;;;;;;;;;;;;;25.01;68.60;97793.44;4166273;28;20137;-75
2023/07/12 00:38:57;;;;;;;5.50;4.70;;;;;;;25.02;68.54;97785.72;4162207;28;19913;-75
2023/07/12 00:41:05;;;;;;;9.32;4.28;;;;;;;24.94;68.79;97788.97;4170839;28;20033;-75
2023/07/12 00:43:17;;;;;;;6.70;4.80;;;;;;;24.91;69.10;97789.19;4169471;28;20045;-75
2023/07/12 00:45:18;;;;;;;10.75;4.82;;;;;;;24.81;69.38;97785.66;4167850;28;20080;-75
2023/07/12 00:47:20;;;;;;;6.50;4.60;;;;;;;24.75;69.88;97790.50;4163026;28;20466;-74
2023/07/12 00:49:21;;;;;;;6.85;4.28;;;;;;;24.65;70.40;97791.84;4162069;28;20813;-74
2023/07/12 00:51:27;;;;;;;4.85;3.42;;;;;;;24.68;70.56;97798.59;4160270;28;20302;-74
2023/07/12 00:53:34;;;;;;;6.28;3.53;;;;;;;24.58;71.17;97790.22;4159028;28;20122;-74
2023/07/12 00:56:05;;;;;;;5.10;3.40;;;;;;;24.53;71.69;97790.91;4161368;28;20128;-74
2023/07/12 00:58:06;;;;;;;4.43;3.25;;;;;;;24.44;72.20;97773.25;4139800;28;20044;-75
2023/07/12 01:00:12;;;;;;;5.57;3.30;;;;;;;24.38;72.62;97785.25;4158234;28;20029;-75
2023/07/12 01:02:14;;;;;;;5.57;3.50;;;;;;;24.30;72.63;97771.97;4158131;28;20037;-75
2023/07/12 01:04:22;;;;;;;7.20;3.08;;;;;;;24.25;72.96;97767.78;4163068;28;20542;-75
2023/07/12 01:06:24;;;;;;;7.80;3.53;;;;;;;24.16;73.35;97744.47;4155147;28;20056;-74
2023/07/12 01:08:24;;;;;;;4.00;3.10;;;;;;;24.16;73.16;97750.91;4156888;28;20045;-74
2023/07/12 01:10:24;;;;;;;3.83;2.70;;;;;;;24.11;73.29;97748.78;4171317;28;20040;-75
2023/07/12 01:12:25;;;;;;;5.95;3.28;;;;;;;24.07;74.23;97751.00;4170607;28;20124;-74
2023/07/12 01:14:26;;;;;;;4.35;3.13;;;;;;;24.02;74.50;97743.22;4171183;28;20079;-75
2023/07/12 01:16:26;;;;;;;5.80;3.13;;;;;;;23.97;74.51;97744.69;4169538;28;20528;-74
2023/07/12 01:18:27;;;;;;;4.13;2.95;;;;;;;23.90;74.85;97735.81;4156602;28;20292;-74
2023/07/12 01:20:27;;;;;;;5.75;2.50;;;;;;;23.90;75.61;97733.75;4156835;28;20033;-74
2023/07/12 01:22:27;;;;;;;3.72;3.00;;;;;;;23.84;76.24;97726.47;4163233;28;20071;-74
2023/07/12 01:24:31;;;;;;;5.25;3.17;;;;;;;23.81;75.63;97717.69;4171002;28;20120;-75
2023/07/12 01:26:37;;;;;;;3.97;2.85;;;;;;;23.77;76.73;97717.09;4170046;28;20552;-75
2023/07/12 01:28:38;;;;;;;3.10;2.42;;;;;;;23.69;77.69;97723.63;4167497;28;20056;-75
2023/07/12 01:30:40;;;;;;;5.05;2.40;;;;;;;23.64;78.28;97721.47;4164509;28;20120;-75
2023/07/12 01:32:41;;;;;;;3.88;2.60;;;;;;;23.55;78.88;97730.75;4164885;28;20061;-74
2023/07/12 01:34:41;;;;;;;4.05;2.85;;;;;;;23.48;78.78;97720.63;4156142;28;20045;-75
2023/07/12 01:36:42;;;;;;;3.33;2.60;;;;;;;23.42;79.42;97721.78;4158947;28;20041;-74
2023/07/12 01:38:42;;;;;;;3.53;2.30;;;;;;;23.32;79.12;97717.47;4170503;28;20041;-74
2023/07/12 01:40:42;;;;;;;2.80;2.40;;;;;;;23.32;79.07;97718.25;4159466;28;20057;-74
2023/07/12 01:42:43;;;;;;;4.97;2.55;;;;;;;23.30;79.17;97703.06;4163947;28;20429;-74
2023/07/12 01:44:44;;;;;;;3.53;2.35;;;;;;;23.30;78.62;97701.03;4155962;28;20061;-74
2023/07/12 01:46:44;;;;;;;3.83;2.17;;;;;;;23.26;78.78;97714.53;4159031;28;20049;-74
2023/07/12 01:48:45;;;;;;;4.65;2.25;;;;;;;23.23;78.11;97704.97;4171583;28;20044;-74
2023/07/12 01:50:45;;;;;;;3.40;2.13;;;;;;;23.21;78.28;97703.91;4167117;28;20388;-74
2023/07/12 01:52:46;;;;;;;2.83;2.20;;;;;;;23.15;78.51;97700.97;4161434;28;20049;-74
2023/07/12 01:54:46;;;;;;;4.38;2.70;;;;;;;23.14;78.79;97695.81;4165299;28;20045;-74
2023/07/12 01:56:46;;;;;;;3.20;1.90;;;;;;;23.14;78.43;97688.13;4158675;28;20037;-74
2023/07/12 01:58:47;;;;;;;2.42;1.90;;;;;;;23.14;77.93;97690.94;4172835;28;20103;-74
2023/07/12 02:00:49;;;;;;;3.35;1.77;;;;;;;23.16;77.29;97688.41;4168709;28;20414;-74
2023/07/12 02:02:50;;;;;;;3.92;2.10;;;;;;;23.18;77.85;97704.88;4170737;28;20045;-74
2023/07/12 02:04:50;;;;;;;4.03;1.83;;;;;;;23.17;77.63;97692.03;4163223;28;20425;-74
2023/07/12 02:06:51;;;;;;;4.72;2.20;;;;;;;23.21;77.76;97689.81;4163853;28;20085;-74
2023/07/12 02:08:51;;;;;;;2.53;1.83;;;;;;;23.20;77.87;97682.59;4174363;28;20041;-74
2023/07/12 02:10:51;;;;;;;4.95;2.25;;;;;;;23.18;78.14;97679.50;4162810;28;20060;-74
2023/07/12 02:12:52;;;;;;;3.10;1.95;;;;;;;23.13;77.74;97672.47;4158578;28;20080;-74
2023/07/12 02:14:52;;;;;;;2.35;1.42;;;;;;;23.17;76.62;97672.28;4159262;28;20818;-74
2023/07/12 02:16:53;;;;;;;3.00;1.70;;;;;;;23.19;75.68;97647.19;4159840;28;20049;-75
2023/07/12 02:18:53;;;;;;;1.83;1.30;;;;;;;23.22;74.57;97654.69;4159250;28;20045;-74
2023/07/12 02:20:53;;;;;;;3.38;1.67;;;;;;;23.21;74.32;97651.09;4166883;28;20397;-75
2023/07/12 02:22:54;;;;;;;3.95;1.88;;;;;;;23.27;74.15;97637.09;4173597;28;20056;-74
2023/07/12 02:24:54;;;;;;;1.95;1.45;;;;;;;23.32;72.37;97627.16;4159443;28;20045;-74
2023/07/12 02:26:55;;;;;;;3.47;1.50;;;;;;;23.39;71.25;97636.03;4164670;28;20049;-74
2023/07/12 02:28:55;;;;;;;2.67;1.80;;;;;;;23.36;72.37;97633.41;4159189;28;20068;-74
2023/07/12 02:31:13;;;;;;;3.25;1.63;;;;;;;23.34;73.93;97650.06;4156991;28;20061;-74
2023/07/12 02:33:14;;;;;;;4.30;2.05;;;;;;;23.26;74.96;97644.00;4164834;28;20056;-74
2023/07/12 02:35:16;;;;;;;5.20;1.90;;;;;;;23.21;75.91;97651.09;4160203;28;20385;-74
2023/07/12 02:37:16;;;;;;;2.90;1.42;;;;;;;23.18;76.13;97646.41;4157198;28;20037;-74
2023/07/12 02:39:17;;;;;;;4.07;2.10;;;;;;;23.09;77.70;97654.97;4156830;28;20045;-74
2023/07/12 02:41:18;;;;;;;6.55;2.10;;;;;;;22.96;77.99;97660.84;4154298;28;20458;-74
2023/07/12 02:43:19;;;;;;;3.95;1.85;;;;;;;22.92;77.97;97665.09;4160656;28;20060;-74
2023/07/12 02:45:20;;;;;;;4.47;1.80;;;;;;;22.87;78.01;97660.91;4165152;28;20064;-74
2023/07/12 02:47:20;;;;;;;3.35;1.75;;;;;;;22.84;77.94;97659.03;4161522;28;20061;-74
2023/07/12 02:49:20;;;;;;;4.63;1.70;;;;;;;22.87;77.35;97658.09;4161592;28;20091;-74
2023/07/12 02:51:21;;;;;;;5.78;2.15;;;;;;;22.88;77.61;97659.66;4161408;28;20034;-73
2023/07/12 02:53:21;;;;;;;3.35;1.70;;;;;;;22.86;77.81;97661.41;4161638;28;20037;-74
2023/07/12 02:55:22;;;;;;;3.30;1.70;;;;;;;22.80;78.52;97664.06;4155251;28;20045;-73
2023/07/12 02:57:23;;;;;;;4.50;2.00;;;;;;;22.73;78.74;97669.28;4163572;28;20103;-74
2023/07/12 02:59:23;;;;;;;3.83;1.95;;;;;;;22.72;79.07;97682.59;4162461;28;20065;-74
2023/07/12 03:01:25;;;;;;;2.47;1.88;;;;;;;22.72;78.61;97676.94;4163327;28;20033;-74
2023/07/12 03:03:27;;;;;;;2.67;1.80;;;;;;;22.69;79.00;97677.91;4162014;28;20307;-74
2023/07/12 03:05:27;;;;;;;;;;;;;;;22.72;79.19;97688.22;4163951;28;20310;-74
2023/07/12 03:07:27;;;;;;;3.50;1.77;;;;;;;22.69;79.88;97689.97;4161666;28;20430;-74
2023/07/12 03:09:28;;;;;;;3.90;1.80;;;;;;;22.63;80.05;97691.88;4157010;28;20269;-74
2023/07/12 03:11:29;;;;;;;3.20;1.80;;;;;;;22.58;81.07;97698.16;4158230;28;20038;-74
2023/07/12 03:13:29;;;;;;;3.00;1.50;;;;;;;22.56;81.63;97708.38;4159281;28;20042;-74
2023/07/12 03:15:29;;;;;;;2.58;1.50;;;;;;;22.40;82.60;97706.72;4159354;28;20052;-73
2023/07/12 03:17:30;;;;;;;3.30;2.10;;;;;;;22.32;82.88;97722.41;4160687;28;20082;-73
2023/07/12 03:19:30;;;;;;;3.00;2.00;;;;;;;22.22;83.71;97718.06;4156459;28;20456;-74
2023/07/12 03:21:30;;;;;;;2.22;1.75;;;;;;;22.19;84.27;97716.19;4162656;28;20067;-74
2023/07/12 03:23:33;;;;;;;6.10;1.83;;;;;;;22.13;84.74;97718.88;4159589;28;20439;-74
2023/07/12 03:25:33;;;;;;;;;;;;;;;22.13;84.01;97711.19;4162328;28;20049;-74
2023/07/12 03:27:33;;;;;;;4.90;1.63;;;;;;;22.12;83.55;97703.22;4162879;28;20141;-74
2023/07/12 03:29:34;;;;;;;2.72;1.42;;;;;;;22.14;82.97;97701.50;4162190;28;20882;-74
2023/07/12 03:31:34;;;;;;;2.33;1.70;;;;;;;22.17;82.83;97704.59;4164856;28;20542;-74
2023/07/12 03:33:35;;;;;;;4.13;1.50;;;;;;;22.21;82.82;97708.06;4159876;28;20052;-73
2023/07/12 03:35:35;;;;;;;3.35;1.70;;;;;;;22.19;82.67;97708.53;4164983;28;20483;-73
2023/07/12 03:37:35;;;;;;;2.45;1.30;;;;;;;22.15;82.76;97722.00;4164289;28;20678;-73
2023/07/12 03:39:36;;;;;;;2.83;1.70;;;;;;;22.18;83.03;97721.06;4158435;28;20071;-74
2023/07/12 03:41:36;;;;;;;3.25;1.60;;;;;;;22.13;83.61;97716.06;4165099;28;20437;-73
2023/07/12 03:43:37;;;;;;;4.32;2.08;;;;;;;22.09;83.59;97721.88;4162338;28;20570;-73
2023/07/12 03:45:37;;;;;;;2.38;1.52;;;;;;;22.12;83.76;97728.59;4159766;28;20060;-74
2023/07/12 03:47:38;;;;;;;3.38;1.63;;;;;;;22.08;83.93;97719.50;4155791;28;20049;-74
2023/07/12 03:49:38;;;;;;;2.45;1.73;;;;;;;22.20;83.65;97734.66;4159959;28;20073;-74
2023/07/12 03:51:38;;;;;;;2.40;1.42;;;;;;;22.15;84.15;97725.59;4159815;28;20029;-74
2023/07/12 03:53:38;;;;;;;2.72;1.40;;;;;;;22.13;84.04;97716.84;4170634;28;20072;-73
2023/07/12 03:55:40;;;;;;;3.30;1.63;;;;;;;22.08;84.19;97731.56;4171099;28;20057;-74
2023/07/12 03:57:41;;;;;;;3.13;1.50;;;;;;;22.07;84.58;97738.44;4161412;28;20682;-74
2023/07/12 03:59:41;;;;;;;2.88;1.70;;;;;;;22.10;84.73;97739.56;4157162;28;20045;-74
2023/07/12 04:01:42;;;;;;;5.07;1.73;;;;;;;22.11;84.90;97750.34;4156899;28;20137;-74
2023/07/12 04:03:42;;;;;;;2.95;1.60;;;;;;;22.11;85.12;97747.53;4156102;28;20508;-74
2023/07/12 04:05:43;;;;;;;2.35;1.50;;;;;;;22.11;85.15;97746.75;4158062;28;20092;-74
2023/07/12 04:07:44;;;;;;;2.85;1.75;;;;;;;22.11;85.45;97758.00;4159140;28;20330;-74
2023/07/12 04:09:44;;;;;;;2.72;1.70;;;;;;;22.18;84.58;97746.41;4164431;28;20560;-74
2023/07/12 04:11:44;;;;;;;3.58;1.65;;;;;;;22.21;84.80;97745.47;4169622;28;20050;-74
2023/07/12 04:13:45;;;;;;;2.80;1.50;;;;;;;22.22;84.98;97735.75;4156843;28;20121;-74
2023/07/12 04:15:45;;;;;;;2.15;1.60;;;;;;;22.25;84.60;97740.41;4157632;28;20099;-74
2023/07/12 04:17:45;;;;;;;4.53;1.50;;;;;;;22.26;84.38;97742.00;4161970;28;20807;-74
2023/07/12 04:19:46;;;;;;;5.00;1.50;;;;;;;22.32;83.79;97747.75;4157421;28;20072;-74
2023/07/12 04:21:46;;;;;;;5.22;1.77;;;;;;;22.36;83.89;97746.34;4157535;28;20198;-74
2023/07/12 04:23:48;;;;;;;6.18;1.55;;;;;;;22.37;83.81;97759.19;4157142;28;20128;-74
2023/07/12 04:25:56;;;;;;;2.05;1.65;;;;;;;22.43;83.70;97756.50;4157162;28;20124;-74
2023/07/12 04:27:56;;;;;;;2.15;1.60;;;;;;;22.43;84.06;97767.78;4169066;28;20110;-74
2023/07/12 04:29:56;;;;;;;2.35;1.60;;;;;;;22.47;83.25;97770.41;4172107;28;20106;-74
2023/07/12 04:31:57;;;;;;;3.72;1.42;;;;;;;22.50;83.73;97770.25;4160337;28;20468;-74
2023/07/12 04:33:57;;;;;;;4.45;1.67;;;;;;;22.52;83.87;97775.44;4157167;28;20096;-74
2023/07/12 04:35:57;;;;;;;3.63;1.40;;;;;;;22.56;84.28;97778.84;4157041;28;20033;-74
2023/07/12 04:37:58;;;;;;;3.42;1.60;;;;;;;22.52;83.84;97775.44;4158549;28;20095;-74
2023/07/12 04:39:58;;;;;;;6.53;1.98;;;;;;;22.57;83.73;97781.19;4163825;28;20120;-74
2023/07/12 04:41:58;;;;;;;4.22;1.58;;;;;;;22.63;83.34;97781.31;4170029;28;20375;-74
2023/07/12 04:44:01;;;;;;;4.90;1.30;;;;;;;22.58;83.46;97779.13;4156890;28;20095;-74
2023/07/12 04:46:01;;;;;;;2.50;1.60;;;;;;;22.63;83.45;97790.56;4157236;28;20076;-75
2023/07/12 04:48:02;;;;;;;5.88;1.60;;;;;;;22.67;83.01;97790.38;4168821;28;20427;-74
2023/07/12 04:50:03;;;;;;;3.45;1.80;;;;;;;22.71;83.05;97796.63;4172279;28;20120;-74
2023/07/12 04:52:05;;;;;;;1.85;1.20;;;;;;;22.77;82.59;97791.91;4157705;28;20071;-74
2023/07/12 04:54:06;;;;;;;2.38;1.48;;;;;;;22.81;82.29;97792.50;4166266;28;20120;-74
2023/07/12 04:56:06;;;;;;;2.20;1.60;;;;;;;22.81;83.01;97794.56;4060890;28;20050;-74
2023/07/12 04:58:06;;;;;;;4.07;1.58;;;;;;;22.90;82.23;97794.53;4155037;28;20064;-74
2023/07/12 05:00:11;;;;;;;2.40;1.30;;;;;;;22.88;82.69;97794.25;4171928;28;20244;-74
2023/07/12 05:02:12;;;;;;;6.43;1.70;;;;;;;22.94;81.68;97798.75;4164873;28;20365;-75
2023/07/12 05:04:13;;;;;;;2.92;1.40;;;;;;;22.97;81.94;97788.53;4166002;28;20069;-75
2023/07/12 05:06:14;;;;;;;1.53;1.30;;;;;;;23.03;81.41;97783.81;4162689;28;20033;-74
2023/07/12 05:08:16;;;;;;;1.88;1.23;;;;;;;23.10;81.07;97782.69;4168242;28;20329;-74
2023/07/12 05:10:16;;;;;;;2.50;1.52;;;;;;;23.15;81.43;97782.78;4163488;28;20041;-74
2023/07/12 05:12:17;;;;;;;2.97;1.50;;;;;;;23.16;80.98;97780.75;4157214;28;20195;-75
2023/07/12 05:14:17;;;;;;;3.15;1.45;;;;;;;23.18;81.01;97778.25;4156117;28;20136;-75
2023/07/12 05:16:17;;;;;;;4.32;1.55;;;;;;;23.18;81.16;97789.53;4164513;28;20041;-74
2023/07/12 05:18:18;;;;;;;2.55;1.40;;;;;;;23.15;81.18;97784.84;4170607;28;20141;-75
2023/07/12 05:20:19;;;;;;;2.50;1.40;;;;;;;23.11;81.88;97785.03;4162970;28;20407;-74
2023/07/12 05:22:19;;;;;;;3.38;1.67;;;;;;;23.08;83.04;97785.19;4156733;28;20075;-74
2023/07/12 05:24:20;;;;;;;3.30;1.63;;;;;;;23.11;82.57;97799.13;4155720;28;20030;-74
2023/07/12 05:26:20;;;;;;;3.85;1.70;;;;;;;23.14;82.49;97800.22;4166655;28;20612;-75
2023/07/12 05:28:21;;;;;;;2.42;1.45;;;;;;;23.20;82.32;97799.06;4170876;28;20643;-74
2023/07/12 05:30:22;;;;;;;4.32;1.70;;;;;;;23.28;82.58;97807.97;4156352;28;20188;-74
2023/07/12 05:32:22;;;;;;;2.40;1.50;;;;;;;23.36;83.08;97814.81;4169707;28;20091;-74
2023/07/12 05:34:23;;;;;;;4.47;1.95;;;;;;;23.39;82.39;97819.50;4170429;28;20491;-74
2023/07/12 05:36:23;;;;;;;3.58;1.63;;;;;;;23.40;82.78;97825.91;4170170;28;20051;-74
2023/07/12 05:38:23;;;;;;;5.13;2.00;;;;;;;23.42;82.41;97832.66;4169682;28;20396;-74
2023/07/12 05:40:24;;;;;;;2.20;1.58;;;;;;;23.48;83.49;97844.06;4172403;28;20461;-74
2023/07/12 05:42:24;;;;;;;3.25;1.90;;;;;;;23.48;82.98;97836.38;4170174;28;20461;-74
2023/07/12 05:44:25;;;;;;;4.70;2.33;;;;;;;23.55;83.03;97846.53;4164189;28;20050;-75
2023/07/12 05:46:26;;;;;;;3.58;2.10;;;;;;;23.53;83.40;97844.19;4160324;28;20041;-74
2023/07/12 05:48:27;;;;;;;4.30;2.22;;;;;;;23.64;83.25;97835.19;4168600;28;20055;-74
2023/07/12 05:50:27;;;;;;;4.25;2.00;;;;;;;23.74;82.79;97847.19;4166746;28;20041;-74
2023/07/12 05:52:27;;;;;;;4.72;1.90;;;;;;;23.70;83.05;97855.09;4157058;28;20036;-74
2023/07/12 05:54:29;;;;;;;3.05;1.70;;;;;;;23.78;83.10;97857.06;4162186;28;20041;-74
2023/07/12 05:56:29;;;;;;;4.72;2.10;;;;;;;23.77;83.06;97869.63;4155929;28;20133;-74
2023/07/12 05:58:30;;;;;;;2.63;2.00;;;;;;;23.85;82.79;97850.25;4169297;28;20075;-74
2023/07/12 06:00:30;;;;;;;8.70;2.15;;;;;;;23.90;83.17;97858.06;4168390;28;20132;-74
2023/07/12 06:02:31;;;;;;;4.55;2.05;;;;;;;23.97;82.74;97854.84;4169682;28;20037;-74
2023/07/12 06:04:32;;;;;;;6.60;2.00;;;;;;;23.95;82.95;97848.91;4164012;28;20095;-74
2023/07/12 06:06:32;;;;;;;3.38;2.08;;;;;;;24.01;83.37;97849.81;4169669;28;20072;-74
2023/07/12 06:08:33;;;;;;;4.25;2.00;;;;;;;24.08;83.28;97862.78;4155138;28;20486;-74
2023/07/12 06:10:33;;;;;;;3.13;2.00;;;;;;;24.13;83.07;97864.16;4166375;28;20037;-75
2023/07/12 06:12:33;;;;;;;5.38;2.50;;;;;;;24.12;82.84;97871.06;4162915;28;20675;-74
2023/07/12 06:14:34;;;;;;;4.10;2.20;;;;;;;24.13;82.94;97872.63;4169176;28;20037;-74
2023/07/12 06:16:34;;;;;;;5.28;2.42;;;;;;;24.16;82.73;97882.94;4166500;28;20045;-74
2023/07/12 06:18:34;;;;;;;4.28;2.40;;;;;;;24.28;83.40;97884.75;4159635;28;20045;-74
2023/07/12 06:20:35;;;;;;;5.25;2.47;;;;;;;24.35;83.04;97890.06;4156847;28;20051;-74
2023/07/12 06:22:36;;;;;;;5.43;3.17;;;;;;;24.43;82.60;97904.59;4167181;28;20054;-73
2023/07/12 06:24:37;;;;;;;4.20;2.38;;;;;;;24.47;82.81;97905.16;4167910;28;20112;-74
2023/07/12 06:26:37;;;;;;;4.20;2.60;;;;;;;24.36;83.22;97906.53;4167942;28;20076;-74
2023/07/12 06:28:37;;;;;;;4.00;2.35;;;;;;;24.32;82.80;97905.91;4170631;28;20033;-74
2023/07/12 06:30:38;;;;;;;3.45;2.53;;;;;;;24.20;84.23;97912.59;4165556;28;20049;-74
2023/07/12 06:32:38;;;;;;;5.93;2.85;;;;;;;24.13;84.17;97920.66;4168286;28;20052;-74
2023/07/12 06:34:39;;;;;;;3.90;2.88;;;;;;;24.00;85.13;97924.53;4162993;28;20037;-74
2023/07/12 06:36:39;;;;;;;5.65;2.83;;;;;;;23.82;85.44;97921.81;4170089;28;20434;-74
2023/07/12 06:38:39;;;;;;;4.35;2.78;;;;;;;23.72;86.08;97909.81;4171258;28;20385;-74
2023/07/12 06:40:41;;;;;;;6.05;2.90;;;;;;;23.67;86.84;97921.00;4169798;28;20091;-74
2023/07/12 06:42:41;;;;;;;5.75;3.03;;;;;;;23.66;86.66;97916.59;4170616;28;20505;-74
2023/07/12 06:44:41;;;;;;;6.55;3.33;;;;;;;23.67;87.18;97907.66;4157522;28;20091;-74
2023/07/12 06:46:42;;;;;;;4.20;2.83;;;;;;;23.66;87.44;97906.06;4168742;28;20068;-74
2023/07/12 06:48:42;;;;;;;3.70;2.75;;;;;;;23.81;87.43;97911.78;4173852;28;20052;-74
2023/07/12 06:50:42;;;;;;;4.70;3.15;;;;;;;23.95;86.87;97907.47;4162864;28;20045;-74
2023/07/12 06:52:43;;;;;;;5.20;3.13;;;;;;;24.01;87.02;97914.81;4163219;28;20042;-74
2023/07/12 06:54:43;;;;;;;3.35;2.90;;;;;;;24.02;85.33;97912.75;4159143;28;20053;-74
2023/07/12 06:56:46;;;;;;;5.93;3.13;;;;;;;24.03;86.49;97915.09;4158900;28;20464;-74
2023/07/12 06:58:46;;;;;;;5.18;3.08;;;;;;;24.09;87.14;97918.03;4159152;28;20103;-74
2023/07/12 07:00:46;;;;;;;4.97;3.22;;;;;;;24.06;86.94;97919.78;4158910;28;20049;-74
2023/07/12 07:02:47;;;;;;;5.13;3.30;;;;;;;24.01;85.57;97923.28;4160825;28;20048;-74
2023/07/12 07:04:47;;;;;;;5.97;3.72;;;;;;;24.05;86.20;97929.50;4165255;28;20494;-74
2023/07/12 07:06:47;;;;;;;4.68;3.50;;;;;;;24.05;87.22;97926.69;4170349;28;20038;-74
2023/07/12 07:08:48;;;;;;;4.07;3.38;;;;;;;24.12;87.83;97927.59;4158679;28;20485;-74
2023/07/12 07:10:51;;;;;;;5.30;3.38;;;;;;;24.10;87.40;97925.25;4158621;28;20134;-74
2023/07/12 07:12:51;;;;;;;7.45;3.70;;;;;;;24.00;88.29;97920.94;4158164;28;20196;-74
2023/07/12 07:14:52;;;;;;;4.43;3.30;;;;;;;23.88;88.69;97914.25;4158762;28;20053;-74
2023/07/12 07:16:52;;;;;;;7.00;4.25;;;;;;;23.81;88.40;97925.91;4167105;28;20362;-74
2023/07/12 07:18:53;;;;;;;8.30;4.38;;;;;;;23.69;89.87;97921.31;4158472;28;20305;-74
2023/07/12 07:20:53;;;;;;;7.18;4.25;;;;;;;23.69;90.50;97932.59;4158780;28;20069;-74
2023/07/12 07:22:54;;;;;;;9.32;4.75;;;;;;;23.52;91.06;97929.38;4172039;28;20044;-74
2023/07/12 07:24:54;;;;;;;5.85;5.20;;;;;;;23.48;90.62;97963.41;4172651;28;20034;-74
2023/07/12 07:26:54;;;;;;;5.88;3.22;;;;;;;22.92;89.79;97953.59;4174298;28;20385;-74
2023/07/12 07:28:55;;;;;;;4.13;2.80;;;;;;;22.47;90.17;97988.22;4172751;28;20229;-74
2023/07/12 07:30:56;;;;;;;4.45;2.92;;;;;;;21.91;92.24;97974.53;4168463;28;20033;-74
2023/07/12 07:32:58;;;;;;;3.60;2.67;;;;;;;21.55;95.72;97968.34;4157720;28;20124;-74
2023/07/12 07:34:59;;;;;;;3.50;1.87;;;;;;;21.49;97.50;97991.94;4158977;28;20474;-74
2023/07/12 07:36:59;;;;;;;2.40;1.80;;;;;;;21.61;97.98;98007.16;4160428;28;20088;-74
2023/07/12 07:39:00;;;;;;;13.27;2.88;;;;;;;21.07;96.22;97997.97;4158113;28;20542;-74
2023/07/12 07:41:04;;;;;;;2.85;2.35;;;;;;;21.06;94.98;98009.69;4159493;28;20575;-73
2023/07/12 07:43:05;;;;;;;3.33;2.30;;;;;;;20.93;93.23;98010.53;4172893;28;20469;-74
2023/07/12 07:45:05;;;;;;;4.28;2.10;;;;;;;20.91;94.39;98015.84;4170498;28;20068;-74
2023/07/12 07:47:06;;;;;;;4.28;2.03;;;;;;;20.88;93.74;98011.13;4157907;28;20136;-74
2023/07/12 07:49:06;;;;;;;3.63;1.58;;;;;;;20.69;91.05;98017.88;4158005;28;20049;-74
2023/07/12 07:51:11;;;;;;;3.00;1.30;;;;;;;20.73;87.25;98029.78;4157835;28;20037;-74
2023/07/12 07:53:11;;;;;;;6.32;1.50;;;;;;;20.67;84.90;98029.56;4157565;28;20437;-74
2023/07/12 07:55:12;;;;;;;2.15;1.27;;;;;;;20.53;82.16;98035.72;4157844;28;20038;-74
2023/07/12 07:57:12;;;;;;;2.05;1.45;;;;;;;20.42;82.71;98040.88;4158049;28;20088;-74
2023/07/12 07:59:15;;;;;;;2.83;1.45;;;;;;;20.35;83.42;98046.75;4158151;28;20393;-74
2023/07/12 08:01:15;;;;;;;;;;;;;;;20.51;83.24;98051.44;4172496;28;20072;-74
2023/07/12 08:03:15;;;;;;;2.40;1.57;;;;;;;20.84;82.02;98054.66;4091578;28;19915;-73
2023/07/12 08:05:16;;;;;;;3.28;1.70;;;;;;;21.02;81.25;98052.00;4181387;28;20267;-74
2023/07/12 08:07:16;;;;;;;5.85;2.00;;;;;;;21.06;79.96;98046.25;4157835;28;20037;-74
2023/07/12 08:09:17;;;;;;;2.65;1.98;;;;;;;21.05;79.05;98039.84;4157977;28;20091;-74
2023/07/12 08:11:17;;;;;;;3.08;1.90;;;;;;;20.90;79.18;98033.94;4169287;28;20036;-74
2023/07/12 08:13:17;;;;;;;2.53;1.85;;;;;;;21.01;78.62;98027.91;4163861;28;20041;-74
2023/07/12 08:15:18;;;;;;;3.88;1.90;;;;;;;21.14;77.92;98030.66;4158729;28;20055;-74
2023/07/12 08:17:19;;;;;;;5.57;2.40;;;;;;;21.39;79.89;98032.53;4162900;28;20060;-74
2023/07/12 08:19:19;;;;;;;3.35;2.30;;;;;;;21.51;79.70;98040.09;4165507;28;20719;-74
2023/07/12 08:21:19;;;;;;;3.00;2.30;;;;;;;21.68;79.30;98044.25;4157297;28;20465;-74
2023/07/12 08:23:20;;;;;;;4.28;2.40;;;;;;;21.93;80.26;98050.88;4156009;28;20045;-74
2023/07/12 08:25:21;;;;;;;3.58;2.30;;;;;;;21.93;78.39;98053.69;4157015;28;20188;-74
2023/07/12 08:27:21;;;;;;;2.45;1.80;;;;;;;22.17;77.52;98059.59;4156752;28;20131;-74
2023/07/12 08:29:21;;;;;;;3.78;1.92;;;;;;;21.80;78.66;98053.84;4157426;28;20211;-74
2023/07/12 08:31:22;;;;;;;2.42;1.58;;;;;;;21.69;79.43;98059.13;4157883;28;20058;-74
2023/07/12 08:33:22;;;;;;;2.28;1.70;;;;;;;21.61;79.69;98060.66;4156146;28;20055;-74
2023/07/12 08:35:22;;;;;;;2.08;1.30;;;;;;;21.66;81.32;98055.19;4157325;28;20064;-74
2023/07/12 08:37:24;;;;;;;2.70;1.55;;;;;;;21.78;82.09;98068.38;4158052;28;20084;-74
2023/07/12 08:39:24;;;;;;;3.10;1.50;;;;;;;21.75;80.88;98065.69;4157419;28;20046;-74
2023/07/12 08:41:26;;;;;;;2.58;1.40;;;;;;;21.62;82.09;98065.81;4157194;28;20042;-74
2023/07/12 08:43:32;;;;;;;3.92;1.70;;;;;;;21.69;83.42;98059.91;4157160;28;20037;-74
2023/07/12 08:45:33;;;;;;;2.15;1.27;;;;;;;21.80;83.52;98054.63;4166272;28;20245;-74
2023/07/12 08:47:38;;;;;;;2.85;1.50;;;;;;;22.03;81.61;98060.94;4170226;28;20487;-74
2023/07/12 08:49:38;;;;;;;3.67;1.98;;;;;;;22.25;80.38;98072.13;4156233;28;20225;-74
2023/07/12 08:51:40;;;;;;;2.70;1.70;;;;;;;22.36;80.02;98064.81;4156993;28;20041;-74
2023/07/12 08:53:41;;;;;;;3.15;1.45;;;;;;;22.52;78.81;98057.31;4155301;28;20036;-74
2023/07/12 08:55:42;;;;;;;3.88;1.20;;;;;;;22.60;77.09;98059.34;4162812;28;20045;-74
2023/07/12 08:57:43;;;;;;;2.72;1.30;;;;;;;22.69;78.05;98061.38;4170392;28;20487;-74
2023/07/12 09:00:07;;;;;;;2.25;1.27;;;;;;;22.76;76.29;98058.25;4161214;28;20092;-73
2023/07/12 09:02:19;;;;;;;2.58;1.17;;;;;;;22.88;76.68;98048.88;4156350;28;20045;-74
2023/07/12 09:04:25;;;;;;;1.98;1.25;;;;;;;23.05;74.93;98045.72;4156677;28;20041;-74
2023/07/12 09:06:25;;;;;;;1.63;1.20;;;;;;;23.18;72.39;98040.69;4169102;28;20374;-74
2023/07/12 09:08:37;;;;;;;1.90;1.45;;;;;;;23.39;71.49;98053.00;4170310;28;20132;-74
2023/07/12 09:10:48;;;;;;;2.63;1.50;;;;;;;23.45;72.11;98045.47;4171577;28;20044;-74
2023/07/12 09:12:51;;;;;;;3.05;1.40;;;;;;;23.61;71.89;98044.34;4155848;28;20592;-74
2023/07/12 09:15:00;;;;;;;2.67;1.50;;;;;;;23.59;70.57;98058.91;4156914;28;20037;-74
2023/07/12 09:17:00;;;;;;;3.25;1.70;;;;;;;23.38;71.55;98054.25;4161631;28;20041;-74
2023/07/12 09:19:23;;;;;;;5.68;1.88;;;;;;;23.20;72.08;98055.09;4159309;28;20038;-74
2023/07/12 09:21:35;;;;;;;3.72;2.05;;;;;;;23.28;72.84;98056.31;4156384;28;20075;-74
2023/07/12 09:23:38;;;;;;;2.40;1.80;;;;;;;23.31;72.94;98060.22;4157949;28;20037;-74
2023/07/12 09:25:39;;;;;;;2.95;1.60;;;;;;;23.40;72.47;98054.56;4159994;28;20165;-74
2023/07/12 09:27:46;;;;;;;2.85;1.75;;;;;;;23.33;72.64;98057.72;4162564;28;20068;-74
2023/07/12 09:29:46;;;;;;;3.55;1.70;;;;;;;23.41;72.65;98059.72;4156728;28;20072;-73
2023/07/12 09:31:47;;;;;;;3.05;1.90;;;;;;;23.23;73.53;98057.72;4156551;28;20063;-74